Tiempo atmosférico en la estación meteorológica de La Pobla de Massaluca, Tarragona (365 m.)



Fecha
DESCASC
Temp. máxima en grados centígrados (hora)
DESCASC
Temp. mínima en grados centígrados (hora)
DESCASC
Temp. media en grados centígrados
DESCASC
Racha de viento máxima en m/sg (hora)
DESCASC
Velocidad máxima media en intervalos de 10 minutos(hora)
DESCASC
Precipitaciones diarias en mm
DESCASC
Precipitaciones de 00:00 a 06:00 en mm
DESCASC
Precipitaciones de 06:00 a 12:00 en mm
DESCASC
Precipitaciones de 12:00 a 18:00 en mm
DESCASC
Precipitaciones de 18:00 a 24:00 en mm
DESCASC
18-08-2019 34.1 (15:40) 22.5 (07:20) 28.3 11.39 (20:10) 6.11 (18:20) 0 0 0 0 0
17-08-2019 32.5 (15:10) 21.2 (06:10) 26.9 11.67 (16:20) 5.56 (16:20) 0 0 0 0 0
16-08-2019 32.3 (15:50) 17.8 (07:20) 25 8.61 (02:10) 5.56 (02:10) 0 0 0 0 0
15-08-2019 32.5 (17:30) 19.9 (00:00) 26.2 9.72 (14:30) 5.83 (03:10) 0 0 0 0 0
14-08-2019 32.1 (19:00) 16.8 (00:00) 24.4 10.56 (14:40) 6.11 (14:40) 0 0 0 0 0
13-08-2019 27.7 (19:10) 15.8 (00:00) 21.8 12.78 (00:40) 7.78 (01:20) 0 0 0 0 0
12-08-2019 27.8 (16:50) 17.5 (00:00) 22.6 12.5 (17:40) 8.33 (12:40) 0 0 0 0 0
11-08-2019 33.6 (17:40) 20.9 (00:00) 27.2 8.61 (00:20) 5.56 (23:20) 0 0 0 0 0
10-08-2019 34.9 (16:40) 21.6 (00:00) 28.3 13.61 (00:10) 8.33 (00:10) 0 0 0 0 0
09-08-2019 39.3 (17:50) 23.9 (00:00) 31.6 11.67 (23:59) 7.5 (23:59) 0 0 0 0 0
08-08-2019 36.4 (17:10) 22.1 (00:00) 29.3 9.72 (21:40) 4.72 (10:50) 0 0 0 0 0
07-08-2019 32.7 (17:10) 21.7 (00:00) 27.2 8.61 (01:30) 4.17 (00:20) 0 0 0 0 0
06-08-2019 35.4 (16:00) 21.7 (00:00) 28.6 9.44 (03:50) 5 (01:40) 0 0 0 0 0
05-08-2019 33.4 (16:00) 21.3 (00:00) 27.4 10.83 (16:10) 5.56 (19:00) 0 0 0 0 0
04-08-2019 34 (14:50) 22.2 (00:00) 28.1 11.94 (16:00) 6.39 (16:10) 0 0 0 0 0
03-08-2019 33.1 (15:20) 20.8 (00:00) 26.9 12.22 (16:10) 6.11 (16:50) 0 0 0 0 0
02-08-2019 33.9 (16:20) 19.4 (00:00) 26.7 9.72 (18:30) 5.28 (09:10) 0 0 0 0 0
01-08-2019 32.1 (16:10) 19.3 (00:00) 25.7 10.56 (18:20) 5.83 (11:40) 0 0 0 0 0
31-07-2019 29.2 (14:40) 15.1 (00:00) 22.2 11.11 (16:10) 6.11 (01:00) 0 0 0 0 0
30-07-2019 29.9 (18:40) 17.9 (00:00) 23.9 11.94 (02:30) 7.78 (02:30) 0 0 0 0 0
29-07-2019 34.9 (16:50) 19 (00:00) 27 10.83 (21:40) 5.56 (18:50) 0 0 0 0 0
28-07-2019 28.2 (17:10) 15.5 (00:00) 21.9 14.44 (00:10) 9.72 (00:10) 0 0 0 0 0
27-07-2019 28.6 (16:30) 18.2 (00:00) 23.4 15.56 (20:30) 10.28 (20:30) 0.2 0 0.2 0 0
26-07-2019 30.5 (18:20) 22.7 (00:00) 26.6 10.56 (15:10) 7.78 (15:10) 0 0 0 0 0
25-07-2019 34.1 (14:50) 22.2 (00:00) 28.1 13.61 (16:10) 6.39 (16:10) 0 0 0 0 0
24-07-2019 36.2 (13:00) 22.6 (00:00) 29.4 11.11 (16:10) 6.11 (18:50) 0 0 0 0 0

Gráficas

Temp. máximas Temp. mínimas Temp. medias Precipitaciones Rachas de viento máximas Velocidades máximas media en intervalos de 10 minutos

Datos horarios

Fecha y hora oficial Temperatura (ºC) Velocidad del viento (km/h) Dirección del viento Racha (km/h) Dirección de racha Precipitación (mm) Presión (hPa) Tendencia (hPa) Humedad (%)
2019-08-22 23:00:00 22.3 5 Este 18 Sudeste 0 -- -- 72
2019-08-22 22:00:00 24 9 Sudeste 16 Sudeste 0 -- -- 63
2019-08-22 21:00:00 26.2 8 Sudeste 14 Sudeste 0 -- -- 53
2019-08-22 20:00:00 29.6 6 Oeste 13 Noroeste 0 -- -- 30
2019-08-22 19:00:00 30.3 9 Oeste 19 Oeste 0 -- -- 29
2019-08-22 18:00:00 31.1 6 Oeste 23 Oeste 0 -- -- 26
2019-08-22 17:00:00 29.7 8 Noroeste 26 Oeste 0 -- -- 34
2019-08-22 16:00:00 29.5 12 Oeste 24 Oeste 0 -- -- 36
2019-08-22 15:00:00 27.8 9 Oeste 26 Oeste 0 -- -- 41
2019-08-22 14:00:00 26.2 12 Oeste 28 Sudoeste 0 -- -- 42
2019-08-22 13:00:00 25 18 Oeste 30 Sudoeste 0 -- -- 44
2019-08-22 12:00:00 23.7 17 Oeste 30 Oeste 0 -- -- 47
2019-08-22 11:00:00 22.2 18 Oeste 30 Sudoeste 0 -- -- 51
2019-08-22 10:00:00 20.8 21 Oeste 32 Oeste 0 -- -- 54
2019-08-22 09:00:00 19.4 10 Oeste 19 Sudoeste 0 -- -- 60
2019-08-22 08:00:00 17.9 10 Sudoeste 15 Sudoeste 0 -- -- 66
2019-08-22 07:00:00 18 10 Sudoeste 21 Sudoeste 0 -- -- 65
2019-08-22 06:00:00 18.2 13 Sudoeste 27 Sudoeste 0 -- -- 67
2019-08-22 05:00:00 18.6 13 Oeste 27 Oeste 0 -- -- 72
2019-08-22 04:00:00 19.4 14 Oeste 26 Sudoeste 0 -- -- 77
2019-08-22 03:00:00 20.6 11 Oeste 17 Oeste 0 -- -- 67
2019-08-22 02:00:00 21.4 9 Sudoeste 13 Sudoeste 0 -- -- 62
2019-08-22 01:00:00 21.8 4 Sudoeste 9 Sudoeste 0 -- -- 64
2019-08-22 00:00:00 22.1 3 Sur 6 Sudeste 0 -- -- 64
2019-08-21 23:00:00 22.7 4 Sur 11 Sur 0 -- -- 62
2019-08-21 22:00:00 23.2 6 Oeste 13 Oeste 0 -- -- 68
2019-08-21 21:00:00 23.6 6 Sudoeste 13 Sudeste 0 -- -- 73
2019-08-21 20:00:00 24.5 8 Sur 17 Sudeste 0 -- -- 69
2019-08-21 19:00:00 26.4 9 Sudeste 15 Sudeste 0 -- -- 61
2019-08-21 18:00:00 27.4 3 Sudoeste 9 Sudoeste 0 -- -- 47
2019-08-21 17:00:00 28.4 4 Noroeste 16 Sudoeste 0 -- -- 45
2019-08-21 16:00:00 28.1 8 Noroeste 17 Sudoeste 0 -- -- 46
2019-08-21 15:00:00 26.9 7 Oeste 21 Oeste 0 -- -- 50
2019-08-21 14:00:00 26 6 Noroeste 15 Sur 0 -- -- 54
2019-08-21 13:00:00 24.1 7 Oeste 16 Oeste 0 -- -- 56
2019-08-21 12:00:00 21.7 10 Oeste 22 Oeste 0 -- -- 63
2019-08-21 11:00:00 20.7 11 Oeste 22 Oeste 0 -- -- 66
2019-08-21 10:00:00 19.3 11 Sudoeste 16 Sudoeste 0 -- -- 71
2019-08-21 09:00:00 17.9 8 Oeste 15 Sudoeste 0 -- -- 77
2019-08-21 08:00:00 16.6 9 Sudoeste 17 Sudoeste 0 -- -- 82
2019-08-21 07:00:00 16.2 8 Sudoeste 17 Sudoeste 0 -- -- 84
2019-08-21 06:00:00 16.6 10 Sudoeste 18 Sudoeste 0 -- -- 84
2019-08-21 05:00:00 17.2 10 Sudoeste 19 Sudoeste 0 -- -- 88
2019-08-21 04:00:00 18.2 10 Sudoeste 14 Sudoeste 0 -- -- 89
2019-08-21 03:00:00 18.4 0 Calma 5 Este 0 -- -- 83
2019-08-21 02:00:00 18.3 0 Calma 5 Sudeste 0 -- -- 86
2019-08-21 01:00:00 18.5 3 Este 9 Sudeste 0 -- -- 85
2019-08-21 00:00:00 18.4 6 Sudeste 8 Sudeste 0 -- -- 85
2019-08-20 23:00:00 18.6 5 Sudeste 9 Sudeste 0 -- -- 86
2019-08-20 22:00:00 18.9 6 Sur 7 Sur 0 -- -- 85
2019-08-20 21:00:00 19.5 3 Sudoeste 9 Sudoeste 0 -- -- 82
2019-08-20 20:00:00 20.1 7 Sudoeste 12 Sudoeste 0 -- -- 79
2019-08-20 19:00:00 20.7 6 Sudoeste 14 Oeste 0 -- -- 77
2019-08-20 18:00:00 18.8 9 Oeste 16 Oeste 0 -- -- 88
2019-08-20 17:00:00 18.2 11 Oeste 20 Oeste 0 -- -- 90
2019-08-20 16:00:00 17.8 13 Oeste 21 Sudoeste 0 -- -- 93
2019-08-20 15:00:00 16.9 12 Oeste 22 Oeste 0 -- -- 97
2019-08-20 14:00:00 17 12 Oeste 20 Oeste 0 -- -- 99
2019-08-20 13:00:00 16.7 13 Oeste 19 Oeste 0.8 -- -- 99
2019-08-20 12:00:00 16.8 8 Oeste 15 Noroeste 0.2 -- -- 99
2019-08-20 11:00:00 16.6 7 Oeste 12 Oeste 1.6 -- -- 99
2019-08-20 10:00:00 16.4 9 Oeste 15 Oeste 1.6 -- -- 98
2019-08-20 09:00:00 16.3 9 Sudoeste 18 Sudoeste 0.2 -- -- 98
2019-08-20 08:00:00 16.2 9 Oeste 20 Sudoeste 0.6 -- -- 96
2019-08-20 07:00:00 16.9 14 Oeste 27 Sudoeste 0 -- -- 93
2019-08-20 06:00:00 17.8 15 Oeste 24 Oeste 0 -- -- 87
2019-08-20 05:00:00 18.6 12 Oeste 22 Sudoeste 0 -- -- 83
2019-08-20 04:00:00 19.7 10 Oeste 18 Sudoeste 0 -- -- 75
2019-08-20 03:00:00 20.7 9 Oeste 15 Sudoeste 0 -- -- 71
2019-08-20 02:00:00 21.9 5 Sudeste 12 Sudeste 0 -- -- 90
2019-08-20 01:00:00 21.7 3 Este 13 Sudeste 0 -- -- 89
2019-08-20 00:00:00 21.6 4 Sudoeste 22 Este 0 -- -- 90
2019-08-19 23:00:00 21.7 11 Este 22 Este 0 -- -- 91
2019-08-19 22:00:00 22 7 Este 21 Este 0.4 -- -- 91
2019-08-19 21:00:00 22.6 8 Este 29 Este 0.6 -- -- 88
2019-08-19 20:00:00 24.3 12 Este 29 Este 0 -- -- 77
2019-08-19 19:00:00 25.2 14 Este 32 Este 0 -- -- 72
2019-08-19 18:00:00 27.3 16 Este 37 Este 0 -- -- 61
2019-08-19 17:00:00 29 18 Este 37 Este 0 -- -- 58
2019-08-19 16:00:00 29.5 15 Este 37 Este 0 -- -- 54
2019-08-19 15:00:00 29.1 15 Este 34 Este 0 -- -- 49
2019-08-19 14:00:00 26.9 7 Este 17 Sudeste 0 -- -- 50
2019-08-19 13:00:00 25.4 4 Nordeste 12 Noroeste 0 -- -- 49
2019-08-19 12:00:00 23.3 5 Oeste 24 Oeste 0 -- -- 54
2019-08-19 11:00:00 22.7 14 Oeste 25 Oeste 0 -- -- 56
2019-08-19 10:00:00 21 15 Sudoeste 28 Oeste 0 -- -- 62
2019-08-19 09:00:00 19.2 16 Oeste 33 Oeste 0 -- -- 67
2019-08-19 08:00:00 19 11 Oeste 21 Oeste 0 -- -- 71
2019-08-19 07:00:00 18.4 8 Oeste 24 Sudoeste 0 -- -- 74
2019-08-19 06:00:00 18.9 13 Oeste 23 Oeste 0 -- -- 72
2019-08-19 05:00:00 19.9 15 Oeste 32 Oeste 0 -- -- 70
2019-08-19 04:00:00 21 16 Oeste 33 Oeste 0 -- -- 68
2019-08-19 03:00:00 22 15 Sudoeste 35 Oeste 0 -- -- 67
2019-08-19 02:00:00 23.1 18 Sudoeste 33 Sudoeste 0 -- -- 63
2019-08-19 01:00:00 24 21 Oeste 39 Sur 0 -- -- 62
2019-08-19 00:00:00 23.9 11 Este 35 Este 0 -- -- 84
2019-08-18 23:00:00 24.2 14 Este 33 Este 0 -- -- 83
2019-08-18 22:00:00 24.9 15 Este 31 Este 0 -- -- 79
2019-08-18 21:00:00 25.8 17 Este 41 Sudeste 0 -- -- 76
2019-08-18 20:00:00 27.5 15 Este 38 Sudeste 0 -- -- 69
2019-08-18 19:00:00 28.5 16 Este 40 Sudeste 0 -- -- 64
2019-08-18 18:00:00 30.8 21 Sudeste 37 Sudeste 0 -- -- 57
2019-08-18 17:00:00 32.7 19 Sudeste 38 Este 0 -- -- 53
2019-08-18 16:00:00 34 17 Este 35 Este 0 -- -- 47
2019-08-18 15:00:00 33.9 18 Este 37 Este 0 -- -- 47
2019-08-18 14:00:00 33.7 13 Este 29 Nordeste 0 -- -- 46
2019-08-18 13:00:00 32.3 13 Este 27 Este 0 -- -- 46
2019-08-18 12:00:00 30.4 10 Sudeste 25 Sudeste 0 -- -- 52
2019-08-18 11:00:00 28.5 13 Este 31 Este 0 -- -- 60
2019-08-18 10:00:00 26.6 12 Este 31 Sudeste 0 -- -- 68
2019-08-18 09:00:00 24.9 16 Este 36 Este 0 -- -- 75
2019-08-18 08:00:00 23.1 16 Este 31 Sudeste 0 -- -- 84
2019-08-18 07:00:00 22.6 14 Este 32 Este 0 -- -- 87
2019-08-18 06:00:00 22.6 15 Este 35 Este 0 -- -- 87
2019-08-18 05:00:00 22.7 15 Este 37 Sudeste 0 -- -- 84
2019-08-18 04:00:00 23 15 Este 40 Sudeste 0 -- -- 81
2019-08-18 03:00:00 23.1 13 Este 29 Este 0 -- -- 75
2019-08-18 02:00:00 23 17 Este 34 Este 0 -- -- 78
2019-08-18 01:00:00 23.1 14 Este 36 Este 0 -- -- 79
2019-08-18 00:00:00 23.4 15 Este 34 Este 0 -- -- 80
2019-08-17 23:00:00 23.6 14 Este 37 Nordeste 0 -- -- 82
2019-08-17 22:00:00 24.1 16 Este 33 Este 0 -- -- 79
2019-08-17 21:00:00 25 13 Este 34 Este 0 -- -- 76
2019-08-17 20:00:00 27.1 17 Este 39 Este 0 -- -- 67
2019-08-17 19:00:00 29.1 17 Este 35 Sudeste 0 -- -- 62
2019-08-17 18:00:00 30.5 17 Sudeste 39 Sudeste 0 -- -- 56
2019-08-17 17:00:00 31.2 19 Este 42 Sudeste 0 -- -- 54
2019-08-17 16:00:00 31.6 19 Sudeste 38 Sudeste 0 -- -- 53
2019-08-17 15:00:00 32.4 14 Este 40 Este 0 -- -- 52
2019-08-17 14:00:00 32.2 18 Este 32 Este 0 -- -- 52
2019-08-17 13:00:00 31.2 13 Sudeste 23 Sudeste 0 -- -- 51
2019-08-17 12:00:00 29.8 8 Este 21 Este 0 -- -- 54
2019-08-17 11:00:00 27.9 8 Sudeste 22 Sudeste 0 -- -- 61
2019-08-17 10:00:00 26.3 9 Este 28 Sudeste 0 -- -- 69
2019-08-17 09:00:00 24.3 13 Este 27 Este 0 -- -- 77
2019-08-17 08:00:00 22.5 12 Este 24 Este 0 -- -- 83
2019-08-17 07:00:00 21.6 13 Este 27 Este 0 -- -- 77
2019-08-17 06:00:00 21.3 15 Este 26 Este 0 -- -- 74
2019-08-17 05:00:00 21.3 17 Este 25 Este 0 -- -- 77
2019-08-17 04:00:00 21.6 15 Este 26 Este 0 -- -- 84
2019-08-17 03:00:00 22 15 Nordeste 25 Nordeste 0 -- -- 83
2019-08-17 02:00:00 22.2 16 Este 24 Este 0 -- -- 80
2019-08-17 01:00:00 23 13 Nordeste 28 Este 0 -- -- 75
2019-08-17 00:00:00 23.6 13 Este 24 Este 0 -- -- 73
2019-08-16 23:00:00 24 12 Este 25 Sudeste 0 -- -- 70
2019-08-16 22:00:00 24.8 9 Este 28 Sudeste 0 -- -- 66
2019-08-16 21:00:00 26.2 12 Este 29 Sudeste 0 -- -- 62
2019-08-16 20:00:00 28.1 14 Este 30 Sudeste 0 -- -- 54
2019-08-16 19:00:00 29.7 15 Sudeste 30 Sudeste 0 -- -- 49
2019-08-16 18:00:00 31 12 Este 28 Sudeste 0 -- -- 48
2019-08-16 17:00:00 31.6 14 Este 28 Este 0 -- -- 46
2019-08-16 16:00:00 32.2 12 Este 27 Este 0 -- -- 43
2019-08-16 15:00:00 31.7 10 Este 27 Este 0 -- -- 42
2019-08-16 14:00:00 30.9 12 Este 26 Este 0 -- -- 40
2019-08-16 13:00:00 29.7 6 Sudeste 20 Sudeste 0 -- -- 43
2019-08-16 12:00:00 27 4 Sudeste 14 Sur 0 -- -- 44
2019-08-16 11:00:00 24.3 3 Sudoeste 10 Oeste 0 -- -- 42
2019-08-16 10:00:00 21.6 6 Oeste 14 Oeste 0 -- -- 48
2019-08-16 09:00:00 20 9 Oeste 14 Sudoeste 0 -- -- 51
2019-08-16 08:00:00 18.3 5 Sudoeste 9 Sudoeste 0 -- -- 56
2019-08-16 07:00:00 18 7 Oeste 15 Oeste 0 -- -- 56
2019-08-16 06:00:00 18.7 9 Oeste 14 Sudoeste 0 -- -- 56
2019-08-16 05:00:00 19.4 8 Sudoeste 15 Oeste 0 -- -- 53
2019-08-16 04:00:00 20.3 7 Oeste 21 Oeste 0 -- -- 50
2019-08-16 03:00:00 21.5 13 Oeste 31 Oeste 0 -- -- 45
2019-08-16 02:00:00 22.8 17 Oeste 27 Oeste 0 -- -- 39
2019-08-16 01:00:00 23.8 15 Sudoeste 25 Sudoeste 0 -- -- 39
2019-08-16 00:00:00 24.4 14 Oeste 26 Oeste 0 -- -- 40
2019-08-15 23:00:00 25.6 12 Oeste 24 Oeste 0 -- -- 37
2019-08-15 22:00:00 27.1 13 Oeste 23 Oeste 0 -- -- 33
2019-08-15 21:00:00 29.4 13 Oeste 22 Oeste 0 -- -- 30
2019-08-15 20:00:00 31.4 15 Oeste 27 Sudoeste 0 -- -- 31
2019-08-15 19:00:00 32 13 Oeste 26 Oeste 0 -- -- 35
2019-08-15 18:00:00 32.4 13 Oeste 28 Oeste 0 -- -- 36
2019-08-15 17:00:00 31.8 13 Oeste 29 Noroeste 0 -- -- 36
2019-08-15 16:00:00 31.1 12 Oeste 32 Sudoeste 0 -- -- 37
2019-08-15 15:00:00 30.6 18 Oeste 35 Oeste 0 -- -- 38
2019-08-15 14:00:00 29.7 15 Oeste 31 Oeste 0 -- -- 42
2019-08-15 13:00:00 28.6 13 Oeste 28 Oeste 0 -- -- 45
2019-08-15 12:00:00 26.6 14 Oeste 27 Oeste 0 -- -- 50
2019-08-15 11:00:00 24.3 17 Sudoeste 30 Sudoeste 0 -- -- 58
2019-08-15 10:00:00 23 19 Oeste 34 Oeste 0 -- -- 62
2019-08-15 09:00:00 21.9 18 Oeste 31 Oeste 0 -- -- 66
2019-08-15 08:00:00 20.4 6 Oeste 16 Sudoeste 0 -- -- 69
2019-08-15 07:00:00 20.3 13 Oeste 30 Oeste 0 -- -- 68
2019-08-15 06:00:00 21 19 Oeste 29 Sudoeste 0 -- -- 62
2019-08-15 05:00:00 21.5 14 Oeste 26 Sudoeste 0 -- -- 58
2019-08-15 04:00:00 22.3 9 Sudoeste 29 Oeste 0 -- -- 54
2019-08-15 03:00:00 23.2 19 Oeste 27 Oeste 0 -- -- 49
2019-08-15 02:00:00 24.3 14 Sudoeste 20 Oeste 0 -- -- 41
2019-08-15 01:00:00 25.2 8 Oeste 17 Sudoeste 0 -- -- 41
2019-08-15 00:00:00 24.3 13 Sur 22 Sur 0 -- -- 61
2019-08-14 23:00:00 25.3 13 Sur 19 Sur 0 -- -- 59
2019-08-14 22:00:00 26.9 10 Sur 20 Sur 0 -- -- 50
2019-08-14 21:00:00 30 9 Oeste 21 Sudoeste 0 -- -- 26
2019-08-14 20:00:00 31.7 10 Oeste 27 Sudoeste 0 -- -- 24
2019-08-14 19:00:00 32.1 14 Oeste 31 Oeste 0 -- -- 23
2019-08-14 18:00:00 32 15 Oeste 35 Sudoeste 0 -- -- 23
2019-08-14 17:00:00 31.9 15 Oeste 33 Oeste 0 -- -- 23
2019-08-14 16:00:00 31 17 Oeste 33 Oeste 0 -- -- 23
2019-08-14 15:00:00 29.5 20 Noroeste 38 Oeste 0 -- -- 25
2019-08-14 14:00:00 29 16 Oeste 32 Sudoeste 0 -- -- 28
2019-08-14 13:00:00 27.1 17 Oeste 27 Oeste 0 -- -- 29
2019-08-14 12:00:00 25.5 11 Oeste 23 Oeste 0 -- -- 33
2019-08-14 11:00:00 23 13 Oeste 22 Oeste 0 -- -- 38
2019-08-14 10:00:00 20.7 14 Oeste 20 Oeste 0 -- -- 44
2019-08-14 09:00:00 18.9 8 Oeste 16 Oeste 0 -- -- 49
2019-08-14 08:00:00 17.5 5 Oeste 10 Oeste 0 -- -- 50
2019-08-14 07:00:00 17 8 Oeste 21 Oeste 0 -- -- 51
2019-08-14 06:00:00 17.8 14 Oeste 26 Sudoeste 0 -- -- 49
2019-08-14 05:00:00 18.4 13 Sudoeste 23 Sudoeste 0 -- -- 49
2019-08-14 04:00:00 18.9 13 Oeste 28 Sudoeste 0 -- -- 49
2019-08-14 03:00:00 19.3 15 Oeste 26 Sudoeste 0 -- -- 48
2019-08-14 02:00:00 19.9 13 Oeste 28 Sudoeste 0 -- -- 46
2019-08-14 01:00:00 20.5 14 Oeste 28 Sudoeste 0 -- -- 44
2019-08-14 00:00:00 21.4 18 Oeste 27 Oeste 0 -- -- 39
2019-08-13 23:00:00 21.9 13 Oeste 21 Sudoeste 0 -- -- 36
2019-08-13 22:00:00 23.2 13 Sudoeste 20 Sudoeste 0 -- -- 33
2019-08-13 21:00:00 24.9 12 Oeste 28 Oeste 0 -- -- 24
2019-08-13 20:00:00 26.6 16 Oeste 31 Oeste 0 -- -- 25
2019-08-13 19:00:00 27.6 18 Oeste 32 Oeste 0 -- -- 24
2019-08-13 18:00:00 27.5 19 Oeste 31 Oeste 0 -- -- 28
2019-08-13 17:00:00 26.8 21 Oeste 33 Oeste 0 -- -- 30
2019-08-13 16:00:00 26 17 Oeste 34 Oeste 0 -- -- 31
2019-08-13 15:00:00 24.6 22 Oeste 34 Oeste 0 -- -- 35
2019-08-13 14:00:00 23.6 16 Oeste 36 Oeste 0 -- -- 39
2019-08-13 13:00:00 21.9 18 Oeste 36 Sudoeste 0 -- -- 43
2019-08-13 12:00:00 20.4 21 Oeste 35 Oeste 0 -- -- 47
2019-08-13 11:00:00 18.6 20 Oeste 38 Oeste 0 -- -- 52
2019-08-13 10:00:00 18.2 22 Oeste 38 Oeste 0 -- -- 53
2019-08-13 09:00:00 16.8 16 Oeste 31 Sudoeste 0 -- -- 58
2019-08-13 08:00:00 16.2 19 Oeste 32 Sudoeste 0 -- -- 61
2019-08-13 07:00:00 15.9 18 Sudoeste 33 Sudoeste 0 -- -- 63
2019-08-13 06:00:00 15.9 16 Oeste 31 Sudoeste 0 -- -- 63
2019-08-13 05:00:00 16 18 Oeste 34 Sudoeste 0 -- -- 62
2019-08-13 04:00:00 16.3 19 Oeste 38 Oeste 0 -- -- 60
2019-08-13 03:00:00 16.6 20 Oeste 33 Oeste 0 -- -- 60
2019-08-13 02:00:00 16.9 19 Oeste 45 Oeste 0 -- -- 60
2019-08-13 01:00:00 17.7 26 Oeste 46 Sudoeste 0 -- -- 57
2019-08-13 00:00:00 18.6 25 Oeste 44 Oeste 0 -- -- 53
2019-08-12 23:00:00 19.8 23 Oeste 39 Oeste 0 -- -- 46
2019-08-12 22:00:00 21.2 25 Oeste 38 Oeste 0 -- -- 42
2019-08-12 21:00:00 23.1 26 Oeste 42 Oeste 0 -- -- 37
2019-08-12 20:00:00 25.5 27 Oeste 36 Oeste 0 -- -- 29
2019-08-12 19:00:00 27 18 Oeste 38 Sudoeste 0 -- -- 26
2019-08-12 18:00:00 27.2 23 Oeste 45 Oeste 0 -- -- 28
2019-08-12 17:00:00 27.4 25 Oeste 41 Sudoeste 0 -- -- 29
2019-08-12 16:00:00 27.4 22 Oeste 39 Oeste 0 -- -- 31
2019-08-12 15:00:00 26.1 24 Oeste 41 Oeste 0 -- -- 34
2019-08-12 14:00:00 24.8 28 Oeste 42 Oeste 0 -- -- 40
2019-08-12 13:00:00 23.3 30 Oeste 44 Oeste 0 -- -- 44
2019-08-12 12:00:00 22.1 26 Oeste 42 Oeste 0 -- -- 50
2019-08-12 11:00:00 20.2 27 Oeste 42 Oeste 0 -- -- 56
2019-08-12 10:00:00 18.6 25 Oeste 41 Oeste 0 -- -- 62
2019-08-12 09:00:00 18.2 21 Oeste 39 Sudoeste 0 -- -- 64
2019-08-12 08:00:00 17.5 21 Oeste 39 Oeste 0 -- -- 66
2019-08-12 07:00:00 17.6 19 Oeste 36 Sudoeste 0 -- -- 66
2019-08-12 06:00:00 18.2 21 Oeste 36 Oeste 0 -- -- 65
2019-08-12 05:00:00 19 27 Oeste 40 Oeste 0 -- -- 63
2019-08-12 04:00:00 20.1 21 Oeste 38 Sudoeste 0 -- -- 57
2019-08-12 03:00:00 21.2 20 Oeste 38 Sudoeste 0 -- -- 54
2019-08-12 02:00:00 21.8 18 Oeste 40 Oeste 0 -- -- 53
2019-08-12 01:00:00 23.1 21 Oeste 36 Sudoeste 0 -- -- 48
2019-08-12 00:00:00 24.9 19 Oeste 30 Oeste 0 -- -- 45
2019-08-11 23:00:00 26.5 10 Oeste 18 Oeste 0 -- -- 50
2019-08-11 22:00:00 27.1 4 Sudeste 13 Sudeste 0 -- -- 55
2019-08-11 21:00:00 28.2 5 Sudeste 17 Sudeste 0 -- -- 54
2019-08-11 20:00:00 30.1 8 Este 21 Este 0 -- -- 46
2019-08-11 19:00:00 30.6 8 Este 24 Este 0 -- -- 45
2019-08-11 18:00:00 33 10 Este 21 Sudeste 0 -- -- 39
2019-08-11 17:00:00 32.6 8 Noroeste 19 Sudoeste 0 -- -- 36
2019-08-11 16:00:00 29.7 5 Sudoeste 19 Noroeste 0 -- -- 43
2019-08-11 15:00:00 30 14 Oeste 25 Noroeste 0 -- -- 45
2019-08-11 14:00:00 28.6 9 Oeste 24 Oeste 0 -- -- 49
2019-08-11 13:00:00 28.1 7 Noroeste 17 Oeste 0 -- -- 52
2019-08-11 12:00:00 24.9 5 Sur 22 Oeste 0 -- -- 58
2019-08-11 11:00:00 22.7 15 Oeste 28 Oeste 0 -- -- 63
2019-08-11 10:00:00 21 20 Oeste 28 Oeste 0 -- -- 69
2019-08-11 09:00:00 23.4 9 Sudoeste 20 Sudoeste 0 -- -- 68
2019-08-11 08:00:00 23.3 5 Este 25 Este 0 -- -- 82
2019-08-11 07:00:00 22.5 10 Este 24 Este 0 -- -- 85
2019-08-11 06:00:00 22.6 12 Este 24 Este 0 -- -- 83
2019-08-11 05:00:00 22.9 10 Este 30 Este 0 -- -- 84
2019-08-11 04:00:00 23.2 16 Este 30 Este 0 -- -- 85
2019-08-11 03:00:00 23.2 13 Sudeste 27 Este 0 -- -- 85
2019-08-11 02:00:00 23.4 10 Este 26 Este 0 -- -- 82
2019-08-11 01:00:00 24.2 13 Este 31 Sudeste 0 -- -- 79
2019-08-11 00:00:00 24.9 12 Este 36 Sudeste 0 -- -- 75
2019-08-10 23:00:00 25.7 14 Este 29 Sudeste 0 -- -- 68
2019-08-10 22:00:00 26.8 10 Este 30 Sudeste 0 -- -- 65
2019-08-10 21:00:00 28.1 10 Este 31 Sudeste 0 -- -- 61
2019-08-10 20:00:00 29.6 15 Sudeste 34 Sur 0 -- -- 55
2019-08-10 19:00:00 31.8 15 Este 35 Sudeste 0 -- -- 47
2019-08-10 18:00:00 32.9 13 Sudeste 30 Sudeste 0 -- -- 44
2019-08-10 17:00:00 34.1 15 Sudeste 32 Sudeste 0 -- -- 42
2019-08-10 16:00:00 33.9 7 Sur 17 Oeste 0 -- -- 32
2019-08-10 15:00:00 32.9 12 Oeste 19 Oeste 0 -- -- 33
2019-08-10 14:00:00 31.1 8 Noroeste 21 Oeste 0 -- -- 34
2019-08-10 13:00:00 29.6 9 Oeste 21 Noroeste 0 -- -- 36
2019-08-10 12:00:00 28.1 12 Oeste 24 Oeste 0 -- -- 37
2019-08-10 11:00:00 26.7 15 Oeste 25 Oeste 0 -- -- 41
2019-08-10 10:00:00 25 17 Oeste 30 Oeste 0 -- -- 46
2019-08-10 09:00:00 23.9 16 Oeste 28 Oeste 0 -- -- 50
2019-08-10 08:00:00 22.3 9 Oeste 20 Oeste 0 -- -- 57
2019-08-10 07:00:00 21.8 12 Oeste 22 Oeste 0 -- -- 59
2019-08-10 06:00:00 22.7 16 Oeste 23 Oeste 0 -- -- 60
2019-08-10 05:00:00 23.2 5 Oeste 21 Oeste 0 -- -- 60
2019-08-10 04:00:00 23.9 12 Oeste 24 Oeste 0 -- -- 58
2019-08-10 03:00:00 24.8 15 Oeste 30 Oeste 0 -- -- 57
2019-08-10 02:00:00 25.6 16 Oeste 34 Oeste 0 -- -- 51
2019-08-10 01:00:00 27.3 24 Oeste 49 Oeste 0 -- -- 53
2019-08-10 00:00:00 30.8 27 Oeste 42 Oeste 0 -- -- 41
2019-08-09 23:00:00 31.8 14 Sur 22 Sur 0 -- -- 36
2019-08-09 22:00:00 32.3 8 Sudeste 21 Sudeste 0 -- -- 32
2019-08-09 21:00:00 33.8 10 Sudeste 31 Sudeste 0 -- -- 28
2019-08-09 20:00:00 35.5 13 Sudeste 33 Sudeste 0 -- -- 31
2019-08-09 19:00:00 36.9 13 Sudeste 30 Sudeste 0 -- -- 30
2019-08-09 18:00:00 38.6 10 Este 26 Sudeste 0 -- -- 27
2019-08-09 17:00:00 38.7 9 Noroeste 24 Oeste 0 -- -- 22
2019-08-09 16:00:00 38.4 10 Sur 31 Oeste 0 -- -- 22
2019-08-09 15:00:00 38.2 14 Oeste 29 Oeste 0 -- -- 22
2019-08-09 14:00:00 37 10 Sur 21 Noroeste 0 -- -- 23
2019-08-09 13:00:00 35.8 7 Norte 18 Sur 0 -- -- 27
2019-08-09 12:00:00 33.8 6 Norte 14 Noroeste 0 -- -- 33
2019-08-09 11:00:00 31.8 4 Noroeste 10 Oeste 0 -- -- 37
2019-08-09 10:00:00 29.6 5 Noroeste 8 Norte 0 -- -- 46
2019-08-09 09:00:00 27.6 3 Este 12 Sudeste 0 -- -- 47
2019-08-09 08:00:00 24.8 7 Sudeste 12 Sudeste 0 -- -- 52
2019-08-09 07:00:00 24.1 8 Este 9 Este 0 -- -- 58
2019-08-09 06:00:00 24.9 8 Sudeste 17 Sudeste 0 -- -- 50
2019-08-09 05:00:00 25.2 12 Sudeste 17 Este 0 -- -- 49
2019-08-09 04:00:00 26.1 12 Sudeste 16 Sudeste 0 -- -- 46
2019-08-09 03:00:00 26.1 8 Este 18 Sudeste 0 -- -- 48
2019-08-09 02:00:00 26.4 8 Este 18 Este 0 -- -- 47
2019-08-09 01:00:00 26.9 10 Este 24 Sudeste 0 -- -- 45
2019-08-09 00:00:00 27 12 Este 30 Sudeste 0 -- -- 44
2019-08-08 23:00:00 27.5 13 Este 35 Sudeste 0 -- -- 46
2019-08-08 22:00:00 28.8 14 Este 35 Este 0 -- -- 44
2019-08-08 21:00:00 30.2 13 Sudeste 29 Sudeste 0 -- -- 42
2019-08-08 20:00:00 32.1 16 Sudeste 35 Sudeste 0 -- -- 40
2019-08-08 19:00:00 33.9 14 Sudeste 33 Nordeste 0 -- -- 37
2019-08-08 18:00:00 34.9 14 Este 31 Sudeste 0 -- -- 37
2019-08-08 17:00:00 35.9 8 Norte 17 Nordeste 0 -- -- 28
2019-08-08 16:00:00 35 4 Nordeste 23 Oeste 0 -- -- 29
2019-08-08 15:00:00 34.1 13 Oeste 27 Oeste 0 -- -- 30
2019-08-08 14:00:00 32.6 9 Oeste 28 Oeste 0 -- -- 31
2019-08-08 13:00:00 31.5 13 Oeste 24 Noroeste 0 -- -- 34
2019-08-08 12:00:00 30.2 14 Oeste 26 Sudoeste 0 -- -- 36
2019-08-08 11:00:00 28.7 15 Oeste 27 Oeste 0 -- -- 40
2019-08-08 10:00:00 26.9 10 Oeste 19 Oeste 0 -- -- 45
2019-08-08 09:00:00 24.8 6 Oeste 18 Oeste 0 -- -- 51
2019-08-08 08:00:00 23.4 10 Sudoeste 19 Sudoeste 0 -- -- 55
2019-08-08 07:00:00 22.4 9 Sudoeste 14 Sudoeste 0 -- -- 67
2019-08-08 06:00:00 22.1 8 Sudoeste 14 Sudoeste 0 -- -- 86
2019-08-08 05:00:00 22.9 0 Calma 5 Oeste 0 -- -- 91
2019-08-08 04:00:00 23.1 3 Oeste 11 Este 0 -- -- 88
2019-08-08 03:00:00 23.6 5 Este 14 Este 0 -- -- 87
2019-08-08 02:00:00 24.2 8 Este 18 Este 0 -- -- 84
2019-08-08 01:00:00 24.8 9 Este 19 Este 0 -- -- 79
2019-08-08 00:00:00 25.4 8 Este 16 Este 0 -- -- 76
2019-08-07 23:00:00 26 6 Este 14 Sudeste 0 -- -- 73
2019-08-07 22:00:00 26.6 9 Sudeste 23 Sudeste 0 -- -- 70
2019-08-07 21:00:00 28.3 8 Sudeste 17 Sudeste 0 -- -- 63
2019-08-07 20:00:00 31.3 5 Norte 16 Oeste 0 -- -- 35
2019-08-07 19:00:00 31.6 6 Norte 16 Oeste 0 -- -- 33
2019-08-07 18:00:00 32.1 5 Norte 18 Oeste 0 -- -- 34
2019-08-07 17:00:00 32.3 8 Noroeste 27 Sudoeste 0 -- -- 36
2019-08-07 16:00:00 30.7 13 Oeste 21 Oeste 0 -- -- 41
2019-08-07 15:00:00 29.1 6 Oeste 22 Oeste 0 -- -- 46
2019-08-07 14:00:00 29 11 Oeste 21 Oeste 0 -- -- 46
2019-08-07 13:00:00 28.4 12 Oeste 19 Oeste 0 -- -- 51
2019-08-07 12:00:00 27.2 9 Oeste 18 Oeste 0 -- -- 55
2019-08-07 11:00:00 26.6 12 Sudoeste 23 Oeste 0 -- -- 57
2019-08-07 10:00:00 24.7 11 Sudoeste 23 Sudoeste 0 -- -- 60
2019-08-07 09:00:00 23.2 4 Oeste 12 Oeste 0 -- -- 67
2019-08-07 08:00:00 21.9 5 Sudoeste 9 Sur 0 -- -- 75
2019-08-07 07:00:00 21.8 4 Sur 11 Sudoeste 0 -- -- 74
2019-08-07 06:00:00 22.2 10 Sudoeste 19 Sudoeste 0 -- -- 73
2019-08-07 05:00:00 22.7 10 Sudoeste 19 Sur 0 -- -- 82
2019-08-07 04:00:00 23.5 10 Sudeste 25 Sur 0 -- -- 88
2019-08-07 03:00:00 23.6 10 Este 25 Este 0 -- -- 87
2019-08-07 02:00:00 23.9 10 Este 31 Este 0 -- -- 84
2019-08-07 01:00:00 24.4 14 Este 31 Este 0 -- -- 81
2019-08-07 00:00:00 24.8 16 Este 31 Sudeste 0 -- -- 80
2019-08-06 23:00:00 25.6 12 Este 26 Sudeste 0 -- -- 77
2019-08-06 22:00:00 27.1 16 Este 24 Este 0 -- -- 69
2019-08-06 21:00:00 29 9 Este 24 Este 0 -- -- 59
2019-08-06 20:00:00 31 12 Sudeste 29 Sur 0 -- -- 51
2019-08-06 19:00:00 32.7 14 Sudeste 29 Este 0 -- -- 48
2019-08-06 18:00:00 33.5 14 Este 31 Sudeste 0 -- -- 47
2019-08-06 17:00:00 35.2 12 Este 28 Este 0 -- -- 41
2019-08-06 16:00:00 35.4 7 Este 24 Este 0 -- -- 39
2019-08-06 15:00:00 34.8 9 Sudeste 26 Este 0 -- -- 40
2019-08-06 14:00:00 33.4 7 Sudeste 19 Nordeste 0 -- -- 45
2019-08-06 13:00:00 31.2 8 Sudeste 17 Sudeste 0 -- -- 52
2019-08-06 12:00:00 29.7 6 Este 18 Este 0 -- -- 57
2019-08-06 11:00:00 27.8 6 Sudoeste 15 Sur 0 -- -- 60
2019-08-06 10:00:00 25.4 7 Sur 17 Sudeste 0 -- -- 70
2019-08-06 09:00:00 23.6 9 Sudeste 13 Sudeste 0 -- -- 81
2019-08-06 08:00:00 22 8 Sur 14 Sudeste 0 -- -- 87
2019-08-06 07:00:00 21.9 5 Sudeste 21 Este 0 -- -- 89
2019-08-06 06:00:00 22.2 10 Este 26 Sudeste 0 -- -- 88
2019-08-06 05:00:00 22.5 12 Este 33 Este 0 -- -- 86
2019-08-06 04:00:00 22.6 15 Este 34 Este 0 -- -- 85
2019-08-06 03:00:00 22.6 15 Este 33 Este 0 -- -- 83
2019-08-06 02:00:00 23.1 18 Este 33 Este 0 -- -- 78
2019-08-06 01:00:00 23.5 13 Este 32 Este 0 -- -- 76
2019-08-06 00:00:00 24.2 14 Este 30 Este 0 -- -- 68
2019-08-05 23:00:00 24.9 14 Este 32 Este 0 -- -- 58
2019-08-05 22:00:00 25.8 15 Este 33 Este 0 -- -- 53
2019-08-05 21:00:00 27.6 15 Este 37 Sudeste 0 -- -- 52
2019-08-05 20:00:00 30.1 16 Este 31 Este 0 -- -- 47
2019-08-05 19:00:00 31.5 20 Este 37 Este 0 -- -- 44
2019-08-05 18:00:00 32.3 13 Este 37 Sudeste 0 -- -- 43
2019-08-05 17:00:00 32.9 15 Este 39 Sudeste 0 -- -- 41
2019-08-05 16:00:00 33.4 14 Este 35 Sudeste 0 -- -- 43
2019-08-05 15:00:00 33.2 14 Sudeste 31 Sudeste 0 -- -- 44
2019-08-05 14:00:00 32.2 17 Sudeste 30 Sudeste 0 -- -- 49
2019-08-05 13:00:00 32.3 11 Este 22 Este 0 -- -- 43
2019-08-05 12:00:00 28.6 5 Norte 15 Oeste 0 -- -- 50
2019-08-05 11:00:00 26.4 4 Sudoeste 13 Oeste 0 -- -- 57
2019-08-05 10:00:00 24.1 10 Sudoeste 17 Sudoeste 0 -- -- 63
2019-08-05 09:00:00 22.5 12 Sudoeste 21 Sudoeste 0 -- -- 69
2019-08-05 08:00:00 21.6 5 Sudoeste 15 Sudoeste 0 -- -- 75
2019-08-05 07:00:00 21.6 6 Sudoeste 13 Sur 0 -- -- 79
2019-08-05 06:00:00 22 8 Sur 14 Sudoeste 0 -- -- 77
2019-08-05 05:00:00 23.1 9 Sur 22 Sudeste 0 -- -- 67
2019-08-05 04:00:00 23.7 9 Este 23 Este 0 -- -- 64
2019-08-05 03:00:00 24 13 Este 26 Este 0 -- -- 65
2019-08-05 02:00:00 23.9 13 Este 29 Este 0 -- -- 68
2019-08-05 01:00:00 24 14 Este 32 Este 0 -- -- 68
2019-08-05 00:00:00 24.1 13 Este 28 Este 0 -- -- 68
2019-08-04 23:00:00 24.3 13 Este 31 Este 0 -- -- 73
2019-08-04 22:00:00 25 14 Este 32 Este 0 -- -- 72
2019-08-04 21:00:00 26.6 15 Este 34 Este 0 -- -- 66
2019-08-04 20:00:00 28.1 13 Este 30 Este 0 -- -- 61
2019-08-04 19:00:00 30.4 18 Este 35 Sudeste 0 -- -- 53
2019-08-04 18:00:00 30.9 17 Este 41 Sudeste 0 -- -- 53
2019-08-04 17:00:00 31.7 19 Este 41 Sudeste 0 -- -- 50
2019-08-04 16:00:00 32.4 22 Este 43 Sudeste 0 -- -- 44
2019-08-04 15:00:00 34 13 Este 26 Este 0 -- -- 41
2019-08-04 14:00:00 33.4 11 Sudeste 26 Sur 0 -- -- 41
2019-08-04 13:00:00 32.6 14 Este 27 Este 0 -- -- 37
2019-08-04 12:00:00 30.9 8 Sudeste 16 Sudeste 0 -- -- 42
2019-08-04 11:00:00 28.6 6 Sur 17 Sudeste 0 -- -- 50
2019-08-04 10:00:00 26.3 7 Sudeste 14 Sudeste 0 -- -- 57
2019-08-04 09:00:00 24.1 6 Sudoeste 14 Sur 0 -- -- 62
2019-08-04 08:00:00 22.5 2 Sudoeste 11 Sudeste 0 -- -- 58
2019-08-04 07:00:00 22.2 6 Este 19 Sudeste 0 -- -- 57
2019-08-04 06:00:00 22.8 6 Este 21 Este 0 -- -- 56
2019-08-04 05:00:00 23 10 Este 31 Este 0 -- -- 57
2019-08-04 04:00:00 23.3 13 Este 30 Sudeste 0 -- -- 59
2019-08-04 03:00:00 23.4 13 Este 32 Este 0 -- -- 62
2019-08-04 02:00:00 23.7 15 Este 31 Este 0 -- -- 59
2019-08-04 01:00:00 23.6 18 Este 35 Este 0 -- -- 63
2019-08-04 00:00:00 24 16 Este 37 Este 0 -- -- 62
2019-08-03 23:00:00 24.4 15 Este 31 Este 0 -- -- 60
2019-08-03 22:00:00 25 18 Este 39 Sudeste 0 -- -- 61
2019-08-03 21:00:00 26.2 15 Este 41 Este 0 -- -- 58
2019-08-03 20:00:00 27.1 14 Este 36 Este 0 -- -- 58
2019-08-03 19:00:00 28.7 21 Este 42 Sudeste 0 -- -- 54
2019-08-03 18:00:00 31 21 Este 41 Sudeste 0 -- -- 49
2019-08-03 17:00:00 31.7 21 Este 44 Este 0 -- -- 46
2019-08-03 16:00:00 32.5 19 Este 37 Este 0 -- -- 43
2019-08-03 15:00:00 32.8 17 Este 35 Este 0 -- -- 37
2019-08-03 14:00:00 32.5 17 Sudeste 37 Este 0 -- -- 36
2019-08-03 13:00:00 32 15 Este 29 Sudeste 0 -- -- 38
2019-08-03 12:00:00 30.5 9 Sudeste 21 Este 0 -- -- 39
2019-08-03 11:00:00 28.2 5 Sudeste 14 Este 0 -- -- 47
2019-08-03 10:00:00 26 2 Nordeste 10 Sur 0 -- -- 55
2019-08-03 09:00:00 23.4 6 Sur 15 Sur 0 -- -- 68
2019-08-03 08:00:00 21.2 9 Sudeste 14 Sudeste 0 -- -- 78
2019-08-03 07:00:00 20.9 7 Sudeste 13 Sudeste 0 -- -- 77
2019-08-03 06:00:00 21.3 3 Sur 19 Sudeste 0 -- -- 75
2019-08-03 05:00:00 21.7 10 Sudeste 21 Sudeste 0 -- -- 75
2019-08-03 04:00:00 22.1 9 Este 19 Este 0 -- -- 66
2019-08-03 03:00:00 22.1 9 Este 19 Este 0 -- -- 62
2019-08-03 02:00:00 22.4 10 Este 20 Sudeste 0 -- -- 65
2019-08-03 01:00:00 22.9 6 Sudeste 20 Este 0 -- -- 68
2019-08-03 00:00:00 23.5 11 Este 24 Sudeste 0 -- -- 63
2019-08-02 23:00:00 24.2 14 Este 27 Este 0 -- -- 58
2019-08-02 22:00:00 25.5 10 Este 24 Sudeste 0 -- -- 52
2019-08-02 21:00:00 27.4 9 Este 31 Sudeste 0 -- -- 44
2019-08-02 20:00:00 29.1 15 Este 34 Sudeste 0 -- -- 40
2019-08-02 19:00:00 30.6 18 Sudeste 35 Sudeste 0 -- -- 37
2019-08-02 18:00:00 32.3 18 Sudeste 33 Sudeste 0 -- -- 34
2019-08-02 17:00:00 33.5 14 Sudeste 32 Sudeste 0 -- -- 32
2019-08-02 16:00:00 33.2 5 Sur 16 Sudoeste 0 -- -- 33
2019-08-02 15:00:00 31.4 6 Norte 19 Sudoeste 0 -- -- 37
2019-08-02 14:00:00 29.6 10 Sudoeste 21 Oeste 0 -- -- 43
2019-08-02 13:00:00 27.5 10 Oeste 23 Oeste 0 -- -- 48
2019-08-02 12:00:00 25.6 11 Sudoeste 23 Sudoeste 0 -- -- 55
2019-08-02 11:00:00 23.6 17 Oeste 29 Oeste 0 -- -- 61
2019-08-02 10:00:00 22.3 15 Oeste 30 Oeste 0 -- -- 66
2019-08-02 09:00:00 21 18 Oeste 31 Oeste 0 -- -- 71
2019-08-02 08:00:00 19.7 15 Sudoeste 24 Sudoeste 0 -- -- 76
2019-08-02 07:00:00 19.4 14 Sudoeste 23 Sudoeste 0 -- -- 77
2019-08-02 06:00:00 20 12 Sudoeste 20 Sudoeste 0 -- -- 75
2019-08-02 05:00:00 20.6 14 Sudoeste 20 Oeste 0 -- -- 72
2019-08-02 04:00:00 21.3 10 Sudoeste 18 Sudoeste 0 -- -- 51
2019-08-02 03:00:00 21.8 4 Sudoeste 10 Este 0 -- -- 42
2019-08-02 02:00:00 22.7 7 Este 19 Este 0 -- -- 36
2019-08-02 01:00:00 23.1 8 Este 21 Este 0 -- -- 39
2019-08-02 00:00:00 23.1 13 Este 21 Este 0 -- -- 43
2019-08-01 23:00:00 23.9 13 Este 24 Este 0 -- -- 38
2019-08-01 22:00:00 24.9 13 Este 26 Este 0 -- -- 41
2019-08-01 21:00:00 26.1 9 Este 26 Este 0 -- -- 39
2019-08-01 20:00:00 28.2 15 Este 36 Nordeste 0 -- -- 36
2019-08-01 19:00:00 30.1 13 Este 38 Sudeste 0 -- -- 33
2019-08-01 18:00:00 30.6 15 Este 37 Sudeste 0 -- -- 32
2019-08-01 17:00:00 31.5 15 Este 29 Sudeste 0 -- -- 32
2019-08-01 16:00:00 32 13 Este 25 Sudeste 0 -- -- 33
2019-08-01 15:00:00 31.3 13 Este 25 Este 0 -- -- 37
2019-08-01 14:00:00 30.2 14 Este 33 Este 0 -- -- 42
2019-08-01 13:00:00 28.6 19 Este 38 Este 0 -- -- 48
2019-08-01 12:00:00 27.6 19 Este 36 Este 0 -- -- 49
2019-08-01 11:00:00 26.3 14 Este 33 Este 0 -- -- 50
2019-08-01 10:00:00 24.7 13 Sudeste 31 Este 0 -- -- 51
2019-08-01 09:00:00 22.8 10 Este 22 Este 0 -- -- 75
2019-08-01 08:00:00 20.3 5 Este 11 Este 0 -- -- 87
2019-08-01 07:00:00 19.4 7 Este 18 Este 0 -- -- 89
2019-08-01 06:00:00 19.7 16 Este 27 Este 0 -- -- 87
2019-08-01 05:00:00 20.3 17 Este 30 Este 0 -- -- 87
2019-08-01 04:00:00 20.3 21 Este 33 Este 0 -- -- 88
2019-08-01 03:00:00 20.9 13 Este 33 Este 0 -- -- 83
2019-08-01 02:00:00 20.9 13 Este 28 Este 0 -- -- 84
2019-08-01 01:00:00 21.1 13 Este 32 Este 0 -- -- 83
2019-08-01 00:00:00 21.4 11 Este 21 Este 0 -- -- 83
2019-07-31 23:00:00 21.5 10 Este 22 Este 0 -- -- 82
2019-07-31 22:00:00 21.9 10 Este 26 Este 0 -- -- 79
2019-07-31 21:00:00 23.4 14 Este 30 Este 0 -- -- 73
2019-07-31 20:00:00 24.9 14 Este 34 Sudeste 0 -- -- 66
2019-07-31 19:00:00 26.5 14 Sudeste 33 Sudeste 0 -- -- 60
2019-07-31 18:00:00 28.1 14 Este 39 Sudeste 0 -- -- 54
2019-07-31 17:00:00 28.4 17 Este 40 Este 0 -- -- 52
2019-07-31 16:00:00 28.4 17 Este 36 Este 0 -- -- 52
2019-07-31 15:00:00 29 15 Este 35 Este 0 -- -- 45
2019-07-31 14:00:00 28.2 13 Sudeste 27 Sur 0 -- -- 42
2019-07-31 13:00:00 26.1 6 Sudeste 15 Sudeste 0 -- -- 39
2019-07-31 12:00:00 22.5 7 Oeste 17 Oeste 0 -- -- 43
2019-07-31 11:00:00 20.7 6 Noroeste 20 Oeste 0 -- -- 49
2019-07-31 10:00:00 19 14 Oeste 23 Oeste 0 -- -- 54
2019-07-31 09:00:00 17.3 13 Oeste 26 Oeste 0 -- -- 59
2019-07-31 08:00:00 16 10 Oeste 17 Oeste 0 -- -- 63
2019-07-31 07:00:00 15.2 10 Oeste 19 Oeste 0 -- -- 65
2019-07-31 06:00:00 15.4 10 Oeste 19 Oeste 0 -- -- 63
2019-07-31 05:00:00 15.7 10 Oeste 14 Oeste 0 -- -- 60
2019-07-31 04:00:00 16.6 11 Oeste 18 Oeste 0 -- -- 58
2019-07-31 03:00:00 17.6 11 Oeste 27 Oeste 0 -- -- 54
2019-07-31 02:00:00 18.9 15 Oeste 31 Sudoeste 0 -- -- 51
2019-07-31 01:00:00 20.4 22 Oeste 35 Oeste 0 -- -- 45
2019-07-31 00:00:00 21.8 13 Oeste 25 Oeste 0 -- -- 42
2019-07-30 23:00:00 23.2 17 Oeste 29 Oeste 0 -- -- 40
2019-07-30 22:00:00 24.6 16 Oeste 27 Oeste 0 -- -- 35
2019-07-30 21:00:00 26.6 21 Oeste 30 Oeste 0 -- -- 32
2019-07-30 20:00:00 28.9 15 Oeste 25 Oeste 0 -- -- 30
2019-07-30 19:00:00 29.6 16 Oeste 28 Oeste 0 -- -- 29
2019-07-30 18:00:00 29.8 14 Oeste 27 Oeste 0 -- -- 29
2019-07-30 17:00:00 29.3 15 Oeste 27 Oeste 0 -- -- 30
2019-07-30 16:00:00 28.9 14 Oeste 28 Oeste 0 -- -- 32
2019-07-30 15:00:00 27.6 14 Oeste 32 Oeste 0 -- -- 35
2019-07-30 14:00:00 26.3 19 Oeste 38 Sudoeste 0 -- -- 37
2019-07-30 13:00:00 25 24 Oeste 35 Oeste 0 -- -- 42
2019-07-30 12:00:00 23.5 20 Oeste 33 Oeste 0 -- -- 46
2019-07-30 11:00:00 21.6 21 Oeste 36 Sudoeste 0 -- -- 53
2019-07-30 10:00:00 20.1 24 Oeste 37 Sudoeste 0 -- -- 59
2019-07-30 09:00:00 18.9 22 Oeste 38 Oeste 0 -- -- 63
2019-07-30 08:00:00 18.2 18 Oeste 39 Oeste 0 -- -- 67
2019-07-30 07:00:00 17.9 19 Oeste 32 Oeste 0 -- -- 69
2019-07-30 06:00:00 18.2 16 Oeste 33 Oeste 0 -- -- 68
2019-07-30 05:00:00 18.9 20 Oeste 38 Sudoeste 0 -- -- 65
2019-07-30 04:00:00 19.9 23 Oeste 43 Sudoeste 0 -- -- 62
2019-07-30 03:00:00 21.2 20 Oeste 43 Sudoeste 0 -- -- 62
2019-07-30 02:00:00 23.4 23 Sudoeste 37 Sudoeste 0 -- -- 58
2019-07-30 01:00:00 24.6 12 Este 25 Este 0 -- -- 58
2019-07-30 00:00:00 25.9 12 Este 29 Sudeste 0 -- -- 49
2019-07-29 23:00:00 26 14 Sudeste 36 Sudeste 0 -- -- 54
2019-07-29 22:00:00 26.2 15 Sudeste 39 Sudeste 0 -- -- 57
2019-07-29 21:00:00 28 13 Este 36 Sudeste 0 -- -- 50
2019-07-29 20:00:00 29.9 16 Este 32 Sudeste 0 -- -- 44
2019-07-29 19:00:00 31.8 15 Sudeste 33 Este 0 -- -- 38
2019-07-29 18:00:00 33.6 14 Sudeste 32 Sudeste 0 -- -- 31
2019-07-29 17:00:00 34.5 15 Sudeste 28 Sudeste 0 -- -- 30
2019-07-29 16:00:00 33.4 8 Noroeste 17 Nordeste 0 -- -- 24
2019-07-29 15:00:00 33 10 Norte 21 Noroeste 0 -- -- 23
2019-07-29 14:00:00 31.5 9 Sudeste 17 Sudeste 0 -- -- 27
2019-07-29 13:00:00 30.1 5 Sur 14 Oeste 0 -- -- 30
2019-07-29 12:00:00 28.1 6 Sur 11 Oeste 0 -- -- 34
2019-07-29 11:00:00 25.6 4 Noroeste 12 Oeste 0 -- -- 39
2019-07-29 10:00:00 23.5 5 Oeste 9 Oeste 0 -- -- 43
2019-07-29 09:00:00 21.4 3 Sudoeste 5 Oeste 0 -- -- 48
2019-07-29 08:00:00 19.9 2 Oeste 4 Oeste 0 -- -- 50
2019-07-29 07:00:00 19.5 4 Sudoeste 11 Sudoeste 0 -- -- 51
2019-07-29 06:00:00 19.5 5 Sudoeste 11 Sudoeste 0 -- -- 51
2019-07-29 05:00:00 20.1 7 Sudoeste 13 Sudoeste 0 -- -- 49
2019-07-29 04:00:00 20.3 7 Sudoeste 14 Sudoeste 0 -- -- 49
2019-07-29 03:00:00 21.1 8 Sudoeste 15 Sur 0 -- -- 47
2019-07-29 02:00:00 20.9 12 Sur 15 Sur 0 -- -- 53
2019-07-29 01:00:00 22 10 Sudoeste 15 Sur 0 -- -- 46
2019-07-29 00:00:00 22.6 11 Sur 13 Sur 0 -- -- 44
2019-07-28 23:00:00 24.2 6 Sudoeste 9 Sudoeste 0 -- -- 36
2019-07-28 22:00:00 24.9 6 Sudoeste 9 Sudoeste 0 -- -- 35
2019-07-28 21:00:00 27.1 6 Oeste 26 Oeste 0 -- -- 31
2019-07-28 20:00:00 27.8 16 Oeste 34 Oeste 0 -- -- 28
2019-07-28 19:00:00 28 22 Oeste 35 Oeste 0 -- -- 28
2019-07-28 18:00:00 28.1 18 Oeste 37 Oeste 0 -- -- 29
2019-07-28 17:00:00 27.9 19 Oeste 43 Oeste 0 -- -- 31
2019-07-28 16:00:00 27.5 24 Oeste 43 Oeste 0 -- -- 31
2019-07-28 15:00:00 26.5 22 Oeste 42 Oeste 0 -- -- 36
2019-07-28 14:00:00 25.4 19 Oeste 41 Oeste 0 -- -- 42
2019-07-28 13:00:00 23.5 27 Oeste 46 Oeste 0 -- -- 45
2019-07-28 12:00:00 22.1 26 Oeste 40 Oeste 0 -- -- 50
2019-07-28 11:00:00 20.2 25 Oeste 46 Oeste 0 -- -- 55
2019-07-28 10:00:00 18.6 30 Oeste 46 Oeste 0 -- -- 62
2019-07-28 09:00:00 17.3 30 Oeste 46 Oeste 0 -- -- 67
2019-07-28 08:00:00 16.3 27 Oeste 46 Oeste 0 -- -- 68
2019-07-28 07:00:00 15.5 26 Oeste 42 Oeste 0 -- -- 71
2019-07-28 06:00:00 15.7 28 Oeste 45 Oeste 0 -- -- 70
2019-07-28 05:00:00 16 28 Oeste 46 Oeste 0 -- -- 69
2019-07-28 04:00:00 16.4 27 Oeste 45 Oeste 0 -- -- 67
2019-07-28 03:00:00 16.7 26 Oeste 45 Sudoeste 0 -- -- 67
2019-07-28 02:00:00 17.2 25 Oeste 41 Oeste 0 -- -- 66
2019-07-28 01:00:00 17.7 19 Oeste 52 Oeste 0 -- -- 64
2019-07-28 00:00:00 18.2 31 Oeste 55 Oeste 0 -- -- 63
2019-07-27 23:00:00 19.2 35 Oeste 56 Sudoeste 0 -- -- 61
2019-07-26 12:00:00 -- -- -- -- -- -- -- -- --
2019-07-26 11:00:00 -- -- -- -- -- -- -- -- --
2019-07-26 10:00:00 -- -- -- -- -- -- -- -- --
2019-07-26 09:00:00 -- -- -- -- -- -- -- -- --
2019-07-26 08:00:00 -- -- -- -- -- -- -- -- --
2019-07-26 07:00:00 -- -- -- -- -- -- -- -- --
2019-07-26 06:00:00 -- -- -- -- -- -- -- -- --
2019-07-26 05:00:00 -- -- -- -- -- -- -- -- --
2019-07-26 04:00:00 -- -- -- -- -- -- -- -- --
2019-07-26 03:00:00 -- -- -- -- -- -- -- -- --
2019-07-26 02:00:00 -- -- -- -- -- -- -- -- --
2019-07-26 01:00:00 -- -- -- -- -- -- -- -- --
2019-07-26 00:00:00 -- -- -- -- -- -- -- -- --
2019-07-25 23:00:00 -- -- -- -- -- -- -- -- --
2019-07-25 22:00:00 -- -- -- -- -- -- -- -- --
2019-07-25 21:00:00 -- -- -- -- -- -- -- -- --
2019-07-25 20:00:00 -- -- -- -- -- -- -- -- --
2019-07-25 19:00:00 -- -- -- -- -- -- -- -- --
2019-07-25 18:00:00 -- -- -- -- -- -- -- -- --
2019-07-25 17:00:00 -- -- -- -- -- -- -- -- --
2019-07-25 16:00:00 -- -- -- -- -- -- -- -- --
2019-07-25 15:00:00 -- -- -- -- -- -- -- -- --
2019-07-25 14:00:00 -- -- -- -- -- -- -- -- --
2019-07-25 13:00:00 -- -- -- -- -- -- -- -- --
2019-07-25 12:00:00 -- -- -- -- -- -- -- -- --
2019-07-25 11:00:00 -- -- -- -- -- -- -- -- --
2019-07-25 10:00:00 -- -- -- -- -- -- -- -- --
2019-07-25 09:00:00 -- -- -- -- -- -- -- -- --
2019-07-25 08:00:00 -- -- -- -- -- -- -- -- --
2019-07-25 07:00:00 -- -- -- -- -- -- -- -- --
2019-07-25 06:00:00 -- -- -- -- -- -- -- -- --
2019-07-25 05:00:00 -- -- -- -- -- -- -- -- --
2019-07-25 04:00:00 -- -- -- -- -- -- -- -- --
2019-07-25 03:00:00 -- -- -- -- -- -- -- -- --
2019-07-25 02:00:00 -- -- -- -- -- -- -- -- --
2019-07-25 01:00:00 -- -- -- -- -- -- -- -- --
2019-07-25 00:00:00 -- -- -- -- -- -- -- -- --
2019-07-24 23:00:00 -- -- -- -- -- -- -- -- --
2019-07-24 22:00:00 -- -- -- -- -- -- -- -- --
2019-07-24 21:00:00 -- -- -- -- -- -- -- -- --
2019-07-24 20:00:00 -- -- -- -- -- -- -- -- --
2019-07-24 19:00:00 -- -- -- -- -- -- -- -- --
2019-07-24 18:00:00 -- -- -- -- -- -- -- -- --
2019-07-24 17:00:00 -- -- -- -- -- -- -- -- --
2019-07-24 16:00:00 -- -- -- -- -- -- -- -- --
2019-07-24 15:00:00 -- -- -- -- -- -- -- -- --
2019-07-24 14:00:00 -- -- -- -- -- -- -- -- --
2019-07-24 13:00:00 -- -- -- -- -- -- -- -- --
2019-07-24 12:00:00 -- -- -- -- -- -- -- -- --
2019-07-24 11:00:00 -- -- -- -- -- -- -- -- --
2019-07-24 10:00:00 -- -- -- -- -- -- -- -- --
2019-07-24 09:00:00 -- -- -- -- -- -- -- -- --
2019-07-24 08:00:00 -- -- -- -- -- -- -- -- --
2019-07-24 07:00:00 -- -- -- -- -- -- -- -- --
2019-07-24 06:00:00 -- -- -- -- -- -- -- -- --
2019-07-24 05:00:00 -- -- -- -- -- -- -- -- --
2019-07-24 04:00:00 -- -- -- -- -- -- -- -- --
2019-07-24 03:00:00 -- -- -- -- -- -- -- -- --
2019-07-24 02:00:00 -- -- -- -- -- -- -- -- --
2019-07-24 01:00:00 -- -- -- -- -- -- -- -- --
2019-07-24 00:00:00 -- -- -- -- -- -- -- -- --